Time;durP1;ratioP1;P1;durP2;ratioP2;P2;SDS_P1;SDS_P2;PMS_P1;PMS_P2;Temp;Humidity;BMP_temperature;BMP_pressure;BME280_temperature;BME280_humidity;BME280_pressure;Samples;Min_cycle;Max_cycle;Signal;HPM_P1;HPM_P2
2021/07/30 00:02:12;;;;;;;7.98;5.80;;;;;;;17.77;64.72;98309.19;261788;1093;22801;-71
2021/07/30 00:08:15;;;;;;;7.90;5.30;;;;;;;17.73;65.00;98307.53;261789;1093;23036;-70
2021/07/30 00:14:30;;;;;;;8.00;5.70;;;;;;;17.67;65.10;98309.70;261749;1093;22822;-71
2021/07/30 00:20:36;;;;;;;;;;;;;;;;;;;;;
2021/07/30 00:26:57;;;;;;;9.10;5.65;;;;;;;17.57;65.63;98300.16;261735;1090;22828;-72
2021/07/30 00:33:24;;;;;;;8.30;6.50;;;;;;;17.52;65.67;98310.46;261790;1092;23404;-71
2021/07/30 00:39:56;;;;;;;7.85;5.75;;;;;;;17.47;65.77;98306.06;261762;1090;22946;-72
2021/07/30 00:52:17;;;;;;;9.07;5.87;;;;;;;17.33;66.06;98305.68;261788;1092;22795;-71
2021/07/30 00:58:30;;;;;;;;;;;;;;;;;;;;;
2021/07/30 01:04:38;;;;;;;6.30;5.40;;;;;;;17.19;66.60;98303.36;261962;1090;24585;-71
2021/07/30 01:11:06;;;;;;;8.30;6.30;;;;;;;17.09;67.00;98305.41;261735;1093;22846;-72
2021/07/30 01:17:18;;;;;;;9.23;6.87;;;;;;;17.00;67.34;98295.85;261683;1090;22816;-71
2021/07/30 01:37:15;;;;;;;9.15;7.00;;;;;;;16.79;68.39;98299.50;261690;1093;22799;-71
2021/07/30 01:50:12;;;;;;;7.83;6.25;;;;;;;16.71;69.04;98301.19;261692;1093;22873;-70
2021/07/30 01:56:32;;;;;;;10.90;6.70;;;;;;;16.66;69.42;98300.63;261702;1093;26356;-71
2021/07/30 02:02:08;;;;;;;9.97;7.73;;;;;;;16.59;69.62;98296.59;261819;1093;22819;-71
2021/07/30 02:08:49;;;;;;;;;;;;;;;;;;;;;
2021/07/30 02:14:38;;;;;;;;;;;;;;;;;;;;;
2021/07/30 02:20:50;;;;;;;12.57;8.80;;;;;;;16.47;70.61;98307.41;261870;1090;22795;-71
2021/07/30 02:26:45;;;;;;;15.75;12.00;;;;;;;16.35;70.80;98308.19;261782;1093;22825;-71
2021/07/30 02:32:51;;;;;;;16.87;13.50;;;;;;;16.18;71.08;98309.20;261824;1090;25883;-71
2021/07/30 02:39:03;;;;;;;;;;;;;;;;;;;;;
2021/07/30 02:45:53;;;;;;;20.15;15.20;;;;;;;15.93;71.63;98313.78;261820;1090;22947;-71
2021/07/30 02:59:09;;;;;;;;;;;;;;;;;;;;;
2021/07/30 03:05:29;;;;;;;24.70;18.10;;;;;;;15.86;72.63;98319.73;261744;1093;24218;-71
2021/07/30 03:11:55;;;;;;;;;;;;;;;;;;;;;
2021/07/30 03:18:50;;;;;;;15.40;10.95;;;;;;;15.89;73.15;98307.47;261780;1093;22920;-71
2021/07/30 03:24:20;;;;;;;13.50;9.50;;;;;;;15.87;73.06;98324.02;261754;1092;22889;-71
2021/07/30 03:30:15;;;;;;;14.83;10.03;;;;;;;15.86;72.99;98327.05;261685;1093;22882;-71
2021/07/30 03:37:02;;;;;;;;;;;;;;;;;;;;;
2021/07/30 03:43:46;;;;;;;22.70;16.10;;;;;;;16.03;73.55;98323.37;261575;1092;24609;-71
2021/07/30 03:50:00;;;;;;;;;;;;;;;;;;;;;
2021/07/30 03:56:38;;;;;;;15.87;12.17;;;;;;;16.78;73.27;98333.08;261794;1093;22836;-71
2021/07/30 04:03:03;;;;;;;15.15;10.10;;;;;;;17.10;73.30;98317.04;261720;1093;23341;-70
2021/07/30 04:08:52;;;;;;;;;;;;;;;;;;;;;
2021/07/30 04:15:06;;;;;;;10.15;8.00;;;;;;;17.31;71.86;98341.22;261687;1092;25891;-71
2021/07/30 04:21:26;;;;;;;10.20;7.10;;;;;;;17.27;71.81;98337.63;261862;1090;22789;-71
2021/07/30 04:27:32;;;;;;;8.85;6.85;;;;;;;17.28;72.18;98318.33;261911;1090;22790;-70
2021/07/30 04:34:00;;;;;;;9.05;7.35;;;;;;;17.38;71.97;98336.00;261615;1090;22798;-71
2021/07/30 04:40:38;;;;;;;10.33;7.30;;;;;;;17.52;72.27;98337.54;261758;1090;22831;-70
2021/07/30 04:47:13;;;;;;;10.60;7.55;;;;;;;17.67;72.21;98344.11;261808;1090;22819;-71
2021/07/30 04:53:32;;;;;;;11.80;7.40;;;;;;;17.90;72.16;98339.70;261689;1093;22805;-71
2021/07/30 04:59:16;;;;;;;8.10;6.70;;;;;;;18.05;71.88;98349.03;261971;1093;22814;-71
2021/07/30 05:05:44;;;;;;;9.70;7.27;;;;;;;18.24;71.81;98342.92;261777;1093;22907;-71
2021/07/30 05:12:18;;;;;;;12.00;7.25;;;;;;;18.51;71.81;98340.46;261546;1090;22854;-70
2021/07/30 05:17:40;;;;;;;9.30;6.50;;;;;;;18.64;71.52;98341.91;261785;1093;22814;-71
2021/07/30 05:23:36;;;;;;;9.60;7.10;;;;;;;18.74;70.96;98337.09;261786;1093;22811;-72
2021/07/30 05:29:12;;;;;;;;;;;;;;;;;;;;;
2021/07/30 05:42:19;;;;;;;8.25;5.95;;;;;;;19.43;69.56;98347.48;261812;1093;22797;-71
2021/07/30 05:49:18;;;;;;;;;;;;;;;;;;;;;
2021/07/30 05:55:28;;;;;;;8.90;6.10;;;;;;;20.11;67.95;98326.25;262069;1089;22773;-70
2021/07/30 06:00:46;;;;;;;7.65;5.55;;;;;;;20.42;66.90;98333.34;262279;1090;23377;-71
2021/07/30 06:06:09;;;;;;;8.40;5.70;;;;;;;20.63;66.65;98326.66;262598;1090;22893;-71
2021/07/30 06:11:50;;;;;;;9.97;6.10;;;;;;;20.85;65.74;98335.95;262014;1089;26383;-72
2021/07/30 06:17:43;;;;;;;5.80;5.17;;;;;;;21.02;65.09;98332.67;262214;1089;22829;-72
2021/07/30 06:23:16;;;;;;;6.98;5.65;;;;;;;21.13;64.65;98343.72;262130;1090;22791;-73
2021/07/30 06:29:39;;;;;;;6.70;5.43;;;;;;;21.26;63.91;98355.16;261981;1093;22797;-73
2021/07/30 06:34:48;;;;;;;9.28;5.50;;;;;;;21.41;63.29;98358.85;262191;1089;22798;-72
2021/07/30 06:40:37;;;;;;;7.05;4.58;;;;;;;21.51;62.45;98376.48;262517;1090;22949;-73
2021/07/30 06:46:48;;;;;;;;;;;;;;;21.66;61.88;98366.58;262530;1089;23455;-72
2021/07/30 06:53:00;;;;;;;8.15;4.78;;;;;;;21.78;61.72;98362.79;262425;1089;24617;-72
2021/07/30 06:58:15;;;;;;;5.10;4.40;;;;;;;21.89;60.70;98366.41;262106;1092;22818;-73
2021/07/30 07:03:24;;;;;;;;;;;;;;;21.98;59.95;98360.64;262281;1089;22856;-72
2021/07/30 07:09:10;;;;;;;;;;;;;;;;;;;;;
2021/07/30 07:14:48;;;;;;;6.03;4.20;;;;;;;22.34;59.52;98356.35;262102;1090;23433;-73
2021/07/30 07:20:25;;;;;;;5.20;4.70;;;;;;;22.51;58.84;98352.19;262031;1088;22798;-72
2021/07/30 07:25:34;;;;;;;4.93;3.83;;;;;;;22.68;58.24;98348.02;262075;1090;22870;-73
2021/07/30 07:31:03;;;;;;;5.03;4.15;;;;;;;22.79;58.00;98350.02;262095;1090;22778;-73
2021/07/30 07:36:13;;;;;;;5.53;4.35;;;;;;;22.94;57.76;98342.71;262106;1090;22825;-72
2021/07/30 07:42:32;;;;;;;5.88;4.48;;;;;;;23.10;57.19;98331.46;261955;1090;24227;-74
2021/07/30 07:48:10;;;;;;;5.25;4.35;;;;;;;23.28;56.19;98329.64;262040;1090;25966;-72
2021/07/30 07:53:27;;;;;;;5.05;4.45;;;;;;;23.48;56.49;98332.06;262086;1090;22841;-73
2021/07/30 07:58:35;;;;;;;4.75;4.08;;;;;;;23.58;54.59;98329.33;262222;1090;22969;-72
2021/07/30 08:04:02;;;;;;;5.80;4.55;;;;;;;23.72;55.08;98327.81;262150;1090;22792;-72
2021/07/30 08:09:56;;;;;;;4.43;4.03;;;;;;;23.90;54.42;98331.39;262149;1090;22771;-72
2021/07/30 08:15:20;;;;;;;4.45;3.83;;;;;;;24.04;53.90;98319.68;262079;1090;22797;-73
2021/07/30 08:20:45;;;;;;;9.33;6.73;;;;;;;24.24;53.18;98317.33;262213;1090;22959;-73
2021/07/30 08:25:52;;;;;;;4.55;3.88;;;;;;;24.54;52.64;98326.30;262585;1090;22825;-72
2021/07/30 08:31:04;;;;;;;5.13;3.88;;;;;;;24.69;51.22;98324.37;262150;1090;22840;-73
2021/07/30 08:36:15;;;;;;;5.20;4.08;;;;;;;24.74;51.60;98321.23;262007;1093;22956;-73
2021/07/30 08:41:55;;;;;;;4.28;3.88;;;;;;;24.91;51.16;98314.91;262087;1090;25935;-74
2021/07/30 08:47:16;;;;;;;6.08;3.70;;;;;;;25.14;50.13;98310.15;262133;1093;23418;-73
2021/07/30 08:53:15;;;;;;;;;;;;;;;;;;;;;
2021/07/30 08:58:25;;;;;;;4.33;3.55;;;;;;;25.42;49.76;98309.26;262056;1090;22949;-73
2021/07/30 09:03:56;;;;;;;4.30;3.90;;;;;;;25.51;48.81;98306.10;262358;1090;22876;-73
2021/07/30 09:09:07;;;;;;;4.90;4.00;;;;;;;25.58;48.86;98301.34;262071;1090;22776;-72
2021/07/30 09:14:43;;;;;;;4.13;3.77;;;;;;;25.68;47.15;98305.20;262123;1089;22751;-73
2021/07/30 09:20:04;;;;;;;4.47;4.03;;;;;;;25.70;46.97;98297.38;262128;1089;22789;-73
2021/07/30 09:25:07;;;;;;;4.83;4.23;;;;;;;25.76;46.45;98284.01;262331;1090;26306;-73
2021/07/30 09:30:15;;;;;;;6.90;4.30;;;;;;;25.81;47.33;98271.81;262651;1090;27083;-73
2021/07/30 09:35:18;;;;;;;4.45;3.95;;;;;;;26.00;47.26;98267.77;262222;1090;22799;-73
2021/07/30 09:40:22;;;;;;;6.45;4.90;;;;;;;26.20;47.01;98257.03;262138;1090;25900;-73
2021/07/30 09:45:32;;;;;;;5.28;4.10;;;;;;;26.39;47.19;98252.94;262142;1088;22943;-73
2021/07/30 09:50:56;;;;;;;8.58;4.80;;;;;;;26.54;46.14;98245.31;262174;1090;26293;-73
2021/07/30 09:56:04;;;;;;;5.73;4.30;;;;;;;26.72;46.65;98245.14;262574;1090;22959;-73
2021/07/30 10:01:12;;;;;;;;;;;;;;;26.71;45.34;98230.64;262424;1090;22779;-73
2021/07/30 10:06:50;;;;;;;6.30;5.70;;;;;;;26.79;45.96;98218.38;262428;1093;21573;-73
2021/07/30 10:11:54;;;;;;;5.90;4.00;;;;;;;26.93;45.16;98213.88;262590;1090;22768;-73
2021/07/30 10:17:02;;;;;;;4.65;4.25;;;;;;;27.08;45.37;98215.25;263037;1090;22852;-73
2021/07/30 10:22:07;;;;;;;4.50;4.10;;;;;;;27.22;44.21;98208.01;262191;1089;25983;-73
2021/07/30 10:27:14;;;;;;;5.55;5.05;;;;;;;27.39;45.10;98201.48;263126;1090;22799;-73
2021/07/30 10:32:40;;;;;;;4.68;4.28;;;;;;;27.58;45.22;98188.27;262580;1090;22950;-74
2021/07/30 10:37:50;;;;;;;4.68;4.28;;;;;;;27.71;43.83;98180.95;262301;1089;22828;-73
2021/07/30 10:49:40;;;;;;;5.93;5.35;;;;;;;27.98;43.53;98175.39;261999;1090;22804;-74
2021/07/30 10:54:49;;;;;;;11.85;10.28;;;;;;;27.97;43.46;98167.56;262274;1088;22875;-71
2021/07/30 11:00:05;;;;;;;4.18;3.78;;;;;;;27.91;41.29;98164.52;262034;1089;22809;-71
2021/07/30 11:05:11;;;;;;;8.13;7.43;;;;;;;27.86;42.97;98166.98;262216;1090;22824;-72
2021/07/30 11:10:17;;;;;;;4.70;4.30;;;;;;;27.95;42.88;98158.94;262205;1089;22733;-73
2021/07/30 11:15:32;;;;;;;5.73;4.15;;;;;;;28.21;43.24;98153.79;262243;1088;22794;-72
2021/07/30 11:20:48;;;;;;;5.38;4.73;;;;;;;28.50;41.63;98160.28;262347;1090;22802;-72
2021/07/30 11:26:03;;;;;;;4.45;4.05;;;;;;;28.74;42.43;98143.69;263881;1090;22821;-72
2021/07/30 11:31:07;;;;;;;5.13;4.68;;;;;;;28.87;42.15;98141.04;262889;1090;22863;-72
2021/07/30 11:36:14;;;;;;;6.65;6.05;;;;;;;28.88;41.77;98134.33;262449;1089;22778;-72
2021/07/30 11:41:20;;;;;;;4.65;4.23;;;;;;;29.14;41.29;98138.08;262537;1089;23369;-72
2021/07/30 11:46:25;;;;;;;4.90;4.48;;;;;;;29.36;40.09;98112.77;262601;1089;25877;-72
2021/07/30 11:52:05;;;;;;;4.75;4.35;;;;;;;29.44;40.22;98113.38;262586;1090;22931;-72
2021/07/30 11:57:51;;;;;;;;;;;;;;;;;;;;;
2021/07/30 12:04:12;;;;;;;4.75;4.35;;;;;;;29.46;40.00;98119.99;262542;1089;22799;-72
2021/07/30 12:10:02;;;;;;;5.23;4.58;;;;;;;29.27;39.87;98112.59;262804;1090;22790;-72
2021/07/30 12:15:25;;;;;;;4.93;4.53;;;;;;;29.61;40.45;98105.86;262513;1089;22807;-72
2021/07/30 12:20:40;;;;;;;4.57;4.20;;;;;;;29.89;37.54;98096.08;262658;1090;22791;-72
2021/07/30 12:26:40;;;;;;;;;;;;;;;;;;;;;
2021/07/30 12:32:40;;;;;;;3.90;3.60;;;;;;;29.88;37.75;98082.71;262788;1090;23436;-72
2021/07/30 12:39:02;;;;;;;4.00;3.48;;;;;;;29.89;37.39;98068.47;262558;1090;22869;-71
2021/07/30 12:44:34;;;;;;;;;;;;;;;;;;;;;
2021/07/30 12:49:47;;;;;;;4.75;3.95;;;;;;;29.92;35.40;98066.83;262574;1090;22814;-71
2021/07/30 12:55:35;;;;;;;4.38;3.98;;;;;;;29.99;35.74;98069.39;262525;1088;22950;-71
2021/07/30 13:01:32;;;;;;;4.05;3.73;;;;;;;29.86;34.86;98066.59;262794;1090;22792;-71
2021/07/30 13:06:57;;;;;;;;;;;;;;;;;;;;;
2021/07/30 13:12:43;;;;;;;4.63;3.80;;;;;;;29.67;34.74;98048.92;262568;1090;25877;-71
2021/07/30 13:18:45;;;;;;;5.88;3.70;;;;;;;29.70;33.24;98059.08;268100;1090;25963;-72
2021/07/30 13:24:27;;;;;;;5.80;4.00;;;;;;;29.70;33.68;98042.52;262578;1090;24255;-71
2021/07/30 13:30:55;;;;;;;3.90;3.50;;;;;;;29.70;33.43;98037.80;262505;1089;22779;-73
2021/07/30 13:43:03;;;;;;;;;;;;;;;;;;;;;
2021/07/30 13:49:01;;;;;;;4.88;4.35;;;;;;;29.78;33.72;98026.56;262673;1090;21460;-71
2021/07/30 13:54:39;;;;;;;6.68;4.20;;;;;;;29.76;34.07;98017.92;263533;1090;23400;-70
2021/07/30 14:01:07;;;;;;;3.83;3.53;;;;;;;29.81;33.55;98014.64;262497;1089;23118;-71
2021/07/30 14:06:53;;;;;;;4.65;4.13;;;;;;;29.78;34.05;98019.05;263020;1088;25999;-71
2021/07/30 14:12:49;;;;;;;5.05;4.60;;;;;;;29.85;34.26;98013.34;262997;1089;22924;-72
2021/07/30 14:18:56;;;;;;;4.75;4.35;;;;;;;29.91;33.70;98008.06;262570;1090;26258;-72
2021/07/30 14:24:24;;;;;;;6.33;4.40;;;;;;;29.84;33.63;97999.98;262353;1092;22823;-72
2021/07/30 14:29:45;;;;;;;6.23;4.20;;;;;;;29.95;34.01;98002.45;262346;1089;22775;-71
2021/07/30 14:35:19;;;;;;;3.55;3.25;;;;;;;30.02;33.61;98011.31;262309;1089;22884;-70
2021/07/30 14:41:33;;;;;;;;;;;;;;;;;;;;;
2021/07/30 15:16:17;;;;;;;;;;;;;;;;;;;;;
2021/07/30 15:22:47;;;;;;;4.50;4.10;;;;;;;29.99;33.84;97953.43;261843;1090;22796;-72
2021/07/30 15:28:03;;;;;;;;;;;;;;;;;;;;;
2021/07/30 15:34:40;;;;;;;;;;;;;;;;;;;;;
2021/07/30 15:41:17;;;;;;;4.53;3.75;;;;;;;30.17;35.59;97947.38;262188;1090;23239;-71
2021/07/30 15:53:35;;;;;;;4.05;3.70;;;;;;;30.25;34.22;97945.16;261767;1090;22838;-71
2021/07/30 15:59:40;;;;;;;4.10;3.78;;;;;;;30.18;35.14;97935.88;261969;1088;24626;-70
2021/07/30 16:19:33;;;;;;;3.77;3.47;;;;;;;29.84;34.49;97930.98;261579;1089;22806;-72
2021/07/30 16:25:37;;;;;;;3.30;3.05;;;;;;;29.79;34.02;97940.56;261710;1090;22806;-71
2021/07/30 16:31:14;;;;;;;4.33;3.93;;;;;;;29.72;33.84;97931.70;261793;1090;24047;-72
2021/07/30 16:36:56;;;;;;;5.40;4.60;;;;;;;29.56;33.46;97941.59;261802;1092;24025;-72
2021/07/30 16:43:29;;;;;;;4.40;3.60;;;;;;;29.44;33.95;97937.59;261726;1090;23010;-73
2021/07/30 16:50:02;;;;;;;4.83;3.68;;;;;;;29.35;34.28;97938.23;261751;1090;24392;-73
2021/07/30 16:55:56;;;;;;;4.93;4.43;;;;;;;29.19;34.97;97919.70;261816;1090;22907;-72
2021/07/30 17:08:32;;;;;;;3.80;3.50;;;;;;;28.80;34.83;97912.47;261558;1090;26366;-72
2021/07/30 17:14:38;;;;;;;4.13;3.83;;;;;;;28.64;35.59;97916.79;261717;1090;22798;-71
2021/07/30 17:20:42;;;;;;;4.35;3.85;;;;;;;28.48;36.13;97914.00;261770;1088;22871;-72
2021/07/30 17:26:59;;;;;;;6.45;5.60;;;;;;;28.28;36.97;97914.84;261796;1090;22803;-71
2021/07/30 17:46:37;;;;;;;4.80;4.25;;;;;;;28.28;36.81;97928.62;261732;1090;22937;-71
2021/07/30 17:53:26;;;;;;;7.93;6.80;;;;;;;27.76;37.84;97921.09;261759;1089;22843;-71
2021/07/30 17:59:20;;;;;;;8.27;5.87;;;;;;;27.33;38.83;97928.17;261682;1090;22806;-71
2021/07/30 18:05:59;;;;;;;4.95;4.45;;;;;;;27.00;39.57;97938.97;261799;1092;22862;-73
2021/07/30 18:12:03;;;;;;;5.60;5.10;;;;;;;26.67;40.48;97935.97;261816;1090;22908;-72
2021/07/30 18:17:59;;;;;;;6.35;5.65;;;;;;;26.37;41.19;97931.33;261679;1093;22828;-72
2021/07/30 18:23:24;;;;;;;5.13;4.45;;;;;;;26.07;41.78;97943.91;261774;1090;27523;-72
2021/07/30 18:29:26;;;;;;;7.95;5.43;;;;;;;25.74;42.15;97946.25;261816;1090;22864;-72
2021/07/30 18:34:50;;;;;;;5.08;4.58;;;;;;;25.38;42.67;97949.39;261796;1090;23545;-70
2021/07/30 18:40:05;;;;;;;9.55;4.90;;;;;;;25.16;43.28;97946.85;261862;1090;22926;-72
2021/07/30 18:45:37;;;;;;;6.20;4.58;;;;;;;24.96;43.52;97941.17;261825;1090;22867;-71
2021/07/30 18:51:32;;;;;;;5.40;4.78;;;;;;;24.70;43.55;97946.07;261898;1089;22894;-70
2021/07/30 18:56:44;;;;;;;5.50;4.50;;;;;;;24.44;44.68;97947.40;261794;1090;26089;-71
2021/07/30 19:01:57;;;;;;;6.18;5.20;;;;;;;24.17;44.96;97956.17;261859;1090;22983;-71
2021/07/30 19:07:06;;;;;;;5.15;4.65;;;;;;;23.88;45.56;97950.06;261802;1090;23468;-70
2021/07/30 19:12:36;;;;;;;6.95;5.60;;;;;;;23.58;46.58;97960.30;261819;1090;24359;-71
2021/07/30 19:17:44;;;;;;;8.35;5.60;;;;;;;23.34;47.02;97961.16;261854;1090;23024;-70
2021/07/30 19:23:00;;;;;;;5.85;5.03;;;;;;;23.13;47.70;97968.21;261942;1089;25989;-71
2021/07/30 19:28:10;;;;;;;7.73;6.05;;;;;;;22.92;48.04;97959.98;261834;1090;22801;-71
2021/07/30 19:38:50;;;;;;;7.48;5.45;;;;;;;22.53;49.49;97967.00;261768;1089;22779;-70
2021/07/30 19:44:39;;;;;;;6.88;5.65;;;;;;;22.36;50.33;97958.39;261798;1089;27593;-72
2021/07/30 19:50:32;;;;;;;6.50;5.70;;;;;;;22.14;50.60;97960.26;261787;1090;22887;-70
2021/07/30 19:55:53;;;;;;;9.43;6.68;;;;;;;21.98;51.36;97960.61;261875;1090;26337;-71
2021/07/30 20:01:24;;;;;;;8.13;5.75;;;;;;;21.82;52.12;97957.43;261737;1090;22809;-72
2021/07/30 20:13:35;;;;;;;;;;;;;;;;;;;;;
2021/07/30 20:19:18;;;;;;;7.87;5.63;;;;;;;21.59;55.31;97947.59;261795;1092;22822;-71
2021/07/30 20:25:14;;;;;;;;;;;;;;;;;;;;;
2021/07/30 20:30:56;;;;;;;6.55;5.43;;;;;;;21.43;55.88;97928.02;261919;1089;22850;-71
2021/07/30 20:36:21;;;;;;;9.23;5.98;;;;;;;21.33;56.13;97934.97;261868;1089;24323;-71
2021/07/30 20:42:03;;;;;;;;;;;;;;;;;;;;;
2021/07/30 20:47:20;;;;;;;11.30;8.53;;;;;;;21.17;57.14;97946.17;261870;1089;24321;-71
2021/07/30 20:52:58;;;;;;;12.68;8.13;;;;;;;21.14;57.52;97949.63;261778;1090;22809;-70
2021/07/30 20:58:14;;;;;;;10.05;8.50;;;;;;;21.09;57.83;97928.22;261802;1090;22880;-71
2021/07/30 21:04:02;;;;;;;11.13;8.18;;;;;;;20.99;58.24;97925.04;261802;1090;26249;-71
2021/07/30 21:22:39;;;;;;;10.98;9.05;;;;;;;20.82;59.17;97912.87;261841;1088;27170;-70
2021/07/30 21:28:00;;;;;;;;;;;;;;;;;;;;;
2021/07/30 21:34:15;;;;;;;11.90;9.00;;;;;;;20.67;60.09;97911.97;261823;1090;22782;-71
2021/07/30 21:39:49;;;;;;;12.73;8.33;;;;;;;20.62;60.11;97909.59;261742;1088;22809;-70
2021/07/30 21:45:54;;;;;;;;;;;;;;;;;;;;;
2021/07/30 21:53:09;;;;;;;14.25;9.05;;;;;;;20.43;60.42;97907.09;261330;1090;22870;-70
2021/07/30 21:59:09;;;;;;;;;;;;;;;;;;;;;
2021/07/30 22:05:31;;;;;;;14.47;8.97;;;;;;;20.21;61.21;97906.88;261817;1090;23564;-70
2021/07/30 22:11:58;;;;;;;11.70;8.93;;;;;;;20.17;61.45;97904.13;261740;1090;25880;-71
2021/07/30 22:18:23;;;;;;;;;;;;;;;;;;;;;
2021/07/30 22:25:29;;;;;;;15.97;11.67;;;;;;;20.06;61.86;97924.19;261728;1089;22806;-72
2021/07/30 22:38:58;;;;;;;16.65;10.60;;;;;;;19.66;63.58;97921.01;261406;1090;22783;-70
2021/07/30 22:45:43;;;;;;;13.50;9.45;;;;;;;19.66;63.74;97919.06;261802;1090;22948;-70
2021/07/30 22:51:31;;;;;;;16.67;10.47;;;;;;;19.67;64.51;97919.86;261953;1090;22787;-71
2021/07/30 22:57:41;;;;;;;15.30;10.00;;;;;;;19.64;64.49;97913.23;261801;1090;22984;-72
2021/07/30 23:04:18;;;;;;;;;;;;;;;;;;;;;
2021/07/30 23:10:00;;;;;;;13.30;9.80;;;;;;;19.53;64.80;97920.47;261700;1090;22798;-71
2021/07/30 23:16:28;;;;;;;16.80;10.20;;;;;;;19.57;65.17;97912.34;261872;1090;22928;-71
2021/07/30 23:22:24;;;;;;;13.50;9.35;;;;;;;19.61;65.46;97918.61;261801;1093;22880;-70
2021/07/30 23:28:42;;;;;;;13.45;9.55;;;;;;;19.54;65.46;97919.30;261832;1090;25874;-71
2021/07/30 23:35:17;;;;;;;12.20;9.00;;;;;;;19.53;65.54;97917.75;261903;1090;25298;-69
2021/07/30 23:47:34;;;;;;;10.95;8.75;;;;;;;19.52;65.78;97913.46;261650;1090;22780;-71
2021/07/30 23:53:26;;;;;;;12.40;8.05;;;;;;;19.48;65.81;97907.97;261700;1089;23546;-70
